sensor_id;sensor_type;location;lat;lon;timestamp;pressure;altitude;pressure_sealevel;temperature;humidity
9784;BME280;4931;44.874;-1.092;2023-06-22T05:02:19;102291.50;;;18.28;100.00
9784;BME280;4931;44.874;-1.092;2023-06-22T05:04:44;102296.44;;;18.31;100.00
9784;BME280;4931;44.874;-1.092;2023-06-22T05:07:09;102306.97;;;18.34;100.00
9784;BME280;4931;44.874;-1.092;2023-06-22T05:09:35;102311.44;;;18.30;100.00
9784;BME280;4931;44.874;-1.092;2023-06-22T05:12:02;102299.28;;;18.26;100.00
9784;BME280;4931;44.874;-1.092;2023-06-22T05:14:29;102313.94;;;18.32;100.00
9784;BME280;4931;44.874;-1.092;2023-06-22T05:16:55;102313.13;;;18.31;100.00
9784;BME280;4931;44.874;-1.092;2023-06-22T05:19:24;102320.50;;;18.41;100.00
9784;BME280;4931;44.874;-1.092;2023-06-22T05:21:49;102293.00;;;18.39;100.00
9784;BME280;4931;44.874;-1.092;2023-06-22T05:24:15;102295.72;;;18.45;100.00
9784;BME280;4931;44.874;-1.092;2023-06-22T05:26:41;102300.22;;;18.40;100.00
9784;BME280;4931;44.874;-1.092;2023-06-22T05:29:06;102323.00;;;18.42;100.00
9784;BME280;4931;44.874;-1.092;2023-06-22T05:31:32;102329.91;;;18.45;100.00
9784;BME280;4931;44.874;-1.092;2023-06-22T05:33:57;102334.09;;;18.42;100.00
9784;BME280;4931;44.874;-1.092;2023-06-22T05:36:23;102347.41;;;18.46;100.00
9784;BME280;4931;44.874;-1.092;2023-06-22T05:38:52;102357.69;;;18.45;100.00
9784;BME280;4931;44.874;-1.092;2023-06-22T05:41:18;102363.16;;;18.50;100.00
9784;BME280;4931;44.874;-1.092;2023-06-22T05:43:43;102360.13;;;18.52;100.00
9784;BME280;4931;44.874;-1.092;2023-06-22T05:46:09;102365.06;;;18.55;100.00
9784;BME280;4931;44.874;-1.092;2023-06-22T05:48:34;102373.34;;;18.60;100.00
9784;BME280;4931;44.874;-1.092;2023-06-22T05:51:00;102381.69;;;18.60;100.00
9784;BME280;4931;44.874;-1.092;2023-06-22T05:53:25;102392.00;;;18.60;100.00
9784;BME280;4931;44.874;-1.092;2023-06-22T05:55:51;102409.47;;;18.60;100.00
9784;BME280;4931;44.874;-1.092;2023-06-22T05:58:17;102433.38;;;18.61;100.00
9784;BME280;4931;44.874;-1.092;2023-06-22T06:00:42;102448.28;;;18.70;100.00
9784;BME280;4931;44.874;-1.092;2023-06-22T06:03:09;102455.50;;;18.71;100.00
9784;BME280;4931;44.874;-1.092;2023-06-22T06:05:36;102464.06;;;18.75;100.00
9784;BME280;4931;44.874;-1.092;2023-06-22T06:08:04;102475.38;;;18.84;100.00
9784;BME280;4931;44.874;-1.092;2023-06-22T06:10:33;102452.53;;;18.87;100.00
9784;BME280;4931;44.874;-1.092;2023-06-22T06:12:59;102452.22;;;18.94;100.00
9784;BME280;4931;44.874;-1.092;2023-06-22T06:15:28;102456.34;;;18.96;100.00
9784;BME280;4931;44.874;-1.092;2023-06-22T06:17:54;102454.34;;;19.02;100.00
9784;BME280;4931;44.874;-1.092;2023-06-22T06:20:21;102460.97;;;19.06;100.00
9784;BME280;4931;44.874;-1.092;2023-06-22T06:22:48;102459.50;;;19.14;100.00
9784;BME280;4931;44.874;-1.092;2023-06-22T06:25:13;102450.31;;;19.13;100.00
9784;BME280;4931;44.874;-1.092;2023-06-22T06:27:48;102433.19;;;19.25;100.00
9784;BME280;4931;44.874;-1.092;2023-06-22T06:30:15;102408.94;;;19.31;100.00
9784;BME280;4931;44.874;-1.092;2023-06-22T06:32:42;102407.44;;;19.38;100.00
9784;BME280;4931;44.874;-1.092;2023-06-22T06:35:11;102392.59;;;19.43;100.00
9784;BME280;4931;44.874;-1.092;2023-06-22T06:37:39;102374.16;;;19.47;100.00
9784;BME280;4931;44.874;-1.092;2023-06-22T06:40:08;102372.66;;;19.55;100.00
9784;BME280;4931;44.874;-1.092;2023-06-22T06:42:39;102364.69;;;19.67;100.00
9784;BME280;4931;44.874;-1.092;2023-06-22T06:45:07;102358.66;;;19.79;100.00
9784;BME280;4931;44.874;-1.092;2023-06-22T06:47:33;102333.38;;;19.76;100.00
9784;BME280;4931;44.874;-1.092;2023-06-22T06:49:58;102341.63;;;19.81;100.00
9784;BME280;4931;44.874;-1.092;2023-06-22T06:52:23;102337.75;;;19.82;100.00
9784;BME280;4931;44.874;-1.092;2023-06-22T06:54:49;102344.97;;;19.83;100.00
9784;BME280;4931;44.874;-1.092;2023-06-22T06:57:16;102342.47;;;19.81;100.00
9784;BME280;4931;44.874;-1.092;2023-06-22T06:59:42;102363.31;;;19.84;100.00
9784;BME280;4931;44.874;-1.092;2023-06-22T07:02:07;102373.84;;;19.87;100.00
9784;BME280;4931;44.874;-1.092;2023-06-22T07:04:33;102370.97;;;19.92;100.00
9784;BME280;4931;44.874;-1.092;2023-06-22T07:07:01;102360.91;;;19.96;100.00
9784;BME280;4931;44.874;-1.092;2023-06-22T07:09:27;102355.94;;;19.93;100.00
9784;BME280;4931;44.874;-1.092;2023-06-22T07:11:53;102349.84;;;19.91;100.00
9784;BME280;4931;44.874;-1.092;2023-06-22T07:14:18;102361.19;;;19.95;100.00
9784;BME280;4931;44.874;-1.092;2023-06-22T07:16:44;102360.06;;;19.96;100.00
9784;BME280;4931;44.874;-1.092;2023-06-22T07:19:11;102353.59;;;20.00;100.00
9784;BME280;4931;44.874;-1.092;2023-06-22T07:21:37;102366.88;;;20.03;100.00
9784;BME280;4931;44.874;-1.092;2023-06-22T07:24:04;102367.94;;;20.07;100.00
9784;BME280;4931;44.874;-1.092;2023-06-22T07:26:31;102366.63;;;20.19;100.00
9784;BME280;4931;44.874;-1.092;2023-06-22T07:28:56;102405.53;;;20.24;100.00
9784;BME280;4931;44.874;-1.092;2023-06-22T07:31:24;102424.94;;;20.29;100.00
9784;BME280;4931;44.874;-1.092;2023-06-22T07:33:49;102395.94;;;20.30;100.00
9784;BME280;4931;44.874;-1.092;2023-06-22T07:36:16;102375.09;;;20.42;100.00
9784;BME280;4931;44.874;-1.092;2023-06-22T07:38:42;102368.91;;;20.45;100.00
9784;BME280;4931;44.874;-1.092;2023-06-22T07:41:07;102353.53;;;20.47;100.00
9784;BME280;4931;44.874;-1.092;2023-06-22T07:43:33;102337.00;;;20.51;100.00
9784;BME280;4931;44.874;-1.092;2023-06-22T07:46:05;102295.09;;;20.56;100.00
9784;BME280;4931;44.874;-1.092;2023-06-22T07:48:30;102280.13;;;20.66;100.00
9784;BME280;4931;44.874;-1.092;2023-06-22T07:50:56;102239.13;;;20.66;100.00
9784;BME280;4931;44.874;-1.092;2023-06-22T07:53:22;102219.94;;;20.65;100.00
9784;BME280;4931;44.874;-1.092;2023-06-22T07:55:48;102210.41;;;20.80;100.00
9784;BME280;4931;44.874;-1.092;2023-06-22T07:58:14;102199.03;;;21.13;100.00
9784;BME280;4931;44.874;-1.092;2023-06-22T08:00:40;102136.19;;;21.47;100.00
9784;BME280;4931;44.874;-1.092;2023-06-22T08:03:06;102110.75;;;21.88;100.00
9784;BME280;4931;44.874;-1.092;2023-06-22T08:05:32;102048.03;;;22.21;100.00
9784;BME280;4931;44.874;-1.092;2023-06-22T08:07:58;101982.44;;;22.36;100.00
9784;BME280;4931;44.874;-1.092;2023-06-22T08:10:24;101916.94;;;22.63;100.00
9784;BME280;4931;44.874;-1.092;2023-06-22T08:12:50;101851.47;;;22.64;100.00
9784;BME280;4931;44.874;-1.092;2023-06-22T08:15:17;101867.47;;;22.85;100.00
9784;BME280;4931;44.874;-1.092;2023-06-22T08:17:44;101854.16;;;22.82;100.00
9784;BME280;4931;44.874;-1.092;2023-06-22T08:20:10;101853.28;;;22.90;100.00
9784;BME280;4931;44.874;-1.092;2023-06-22T08:22:40;101860.25;;;22.84;100.00
9784;BME280;4931;44.874;-1.092;2023-06-22T08:25:06;101826.16;;;23.12;100.00
9784;BME280;4931;44.874;-1.092;2023-06-22T08:27:32;101805.31;;;23.30;100.00
9784;BME280;4931;44.874;-1.092;2023-06-22T08:29:58;101787.97;;;23.70;100.00
9784;BME280;4931;44.874;-1.092;2023-06-22T08:32:25;101753.97;;;24.06;100.00
9784;BME280;4931;44.874;-1.092;2023-06-22T08:34:53;101725.59;;;24.07;100.00
9784;BME280;4931;44.874;-1.092;2023-06-22T08:37:19;101712.19;;;24.25;100.00
9784;BME280;4931;44.874;-1.092;2023-06-22T08:39:44;101707.03;;;24.52;100.00
9784;BME280;4931;44.874;-1.092;2023-06-22T08:42:09;101699.56;;;24.56;100.00
9784;BME280;4931;44.874;-1.092;2023-06-22T08:44:35;101712.53;;;24.36;100.00
9784;BME280;4931;44.874;-1.092;2023-06-22T08:47:00;101714.28;;;24.41;100.00
9784;BME280;4931;44.874;-1.092;2023-06-22T08:49:27;101701.91;;;24.42;100.00
9784;BME280;4931;44.874;-1.092;2023-06-22T08:51:52;101691.59;;;24.71;100.00
9784;BME280;4931;44.874;-1.092;2023-06-22T08:54:21;101685.38;;;25.06;100.00
9784;BME280;4931;44.874;-1.092;2023-06-22T08:56:46;101674.44;;;25.00;100.00
9784;BME280;4931;44.874;-1.092;2023-06-22T08:59:12;101681.31;;;24.75;100.00
9784;BME280;4931;44.874;-1.092;2023-06-22T09:01:37;101674.88;;;25.02;100.00
9784;BME280;4931;44.874;-1.092;2023-06-22T09:04:03;101672.16;;;25.34;100.00
9784;BME280;4931;44.874;-1.092;2023-06-22T09:06:31;101674.66;;;25.24;100.00
9784;BME280;4931;44.874;-1.092;2023-06-22T09:08:57;101673.56;;;25.12;100.00
9784;BME280;4931;44.874;-1.092;2023-06-22T09:11:25;101668.50;;;25.18;100.00
9784;BME280;4931;44.874;-1.092;2023-06-22T09:13:50;101676.72;;;25.11;100.00
9784;BME280;4931;44.874;-1.092;2023-06-22T09:16:17;101676.09;;;24.89;100.00
9784;BME280;4931;44.874;-1.092;2023-06-22T09:18:45;101676.41;;;24.72;100.00
9784;BME280;4931;44.874;-1.092;2023-06-22T09:21:12;101679.34;;;24.63;100.00
9784;BME280;4931;44.874;-1.092;2023-06-22T09:23:37;101678.03;;;24.48;100.00
9784;BME280;4931;44.874;-1.092;2023-06-22T09:26:03;101683.22;;;24.33;100.00
9784;BME280;4931;44.874;-1.092;2023-06-22T09:28:29;101687.66;;;24.47;100.00
9784;BME280;4931;44.874;-1.092;2023-06-22T09:30:54;101688.56;;;24.51;100.00
9784;BME280;4931;44.874;-1.092;2023-06-22T09:33:24;101696.06;;;24.34;100.00
9784;BME280;4931;44.874;-1.092;2023-06-22T09:35:49;101704.63;;;24.26;100.00
9784;BME280;4931;44.874;-1.092;2023-06-22T09:38:16;101710.06;;;24.34;100.00
9784;BME280;4931;44.874;-1.092;2023-06-22T09:40:42;101717.34;;;24.23;100.00
9784;BME280;4931;44.874;-1.092;2023-06-22T09:43:07;101720.25;;;24.02;100.00
9784;BME280;4931;44.874;-1.092;2023-06-22T09:45:33;101727.13;;;24.04;100.00
9784;BME280;4931;44.874;-1.092;2023-06-22T09:47:58;101722.00;;;24.31;100.00
9784;BME280;4931;44.874;-1.092;2023-06-22T09:50:24;101725.75;;;24.35;100.00
9784;BME280;4931;44.874;-1.092;2023-06-22T09:52:49;101724.34;;;24.42;100.00
9784;BME280;4931;44.874;-1.092;2023-06-22T09:55:20;101726.44;;;24.57;100.00
9784;BME280;4931;44.874;-1.092;2023-06-22T09:57:46;101725.72;;;24.60;100.00
9784;BME280;4931;44.874;-1.092;2023-06-22T10:00:12;101729.44;;;24.77;100.00
9784;BME280;4931;44.874;-1.092;2023-06-22T10:02:41;101720.44;;;25.12;100.00
9784;BME280;4931;44.874;-1.092;2023-06-22T10:05:07;101726.94;;;25.28;100.00
9784;BME280;4931;44.874;-1.092;2023-06-22T10:07:33;101730.00;;;25.23;100.00
9784;BME280;4931;44.874;-1.092;2023-06-22T10:09:58;101731.44;;;25.17;100.00
9784;BME280;4931;44.874;-1.092;2023-06-22T10:12:25;101736.72;;;25.06;100.00
9784;BME280;4931;44.874;-1.092;2023-06-22T10:14:50;101740.41;;;24.94;100.00
9784;BME280;4931;44.874;-1.092;2023-06-22T10:17:16;101731.06;;;24.90;100.00
9784;BME280;4931;44.874;-1.092;2023-06-22T10:19:41;101737.84;;;24.89;100.00
9784;BME280;4931;44.874;-1.092;2023-06-22T10:22:07;101735.81;;;25.30;100.00
9784;BME280;4931;44.874;-1.092;2023-06-22T10:24:32;101739.44;;;25.59;100.00
9784;BME280;4931;44.874;-1.092;2023-06-22T10:26:58;101739.97;;;25.49;100.00
9784;BME280;4931;44.874;-1.092;2023-06-22T10:29:23;101730.56;;;25.57;100.00
9784;BME280;4931;44.874;-1.092;2023-06-22T10:31:49;101729.69;;;25.85;100.00
9784;BME280;4931;44.874;-1.092;2023-06-22T10:34:14;101729.97;;;25.80;100.00
9784;BME280;4931;44.874;-1.092;2023-06-22T10:36:40;101727.31;;;25.71;100.00
9784;BME280;4931;44.874;-1.092;2023-06-22T10:39:05;101720.25;;;25.77;100.00
9784;BME280;4931;44.874;-1.092;2023-06-22T10:41:31;101728.00;;;26.12;100.00
9784;BME280;4931;44.874;-1.092;2023-06-22T10:43:56;101721.81;;;26.07;100.00
9784;BME280;4931;44.874;-1.092;2023-06-22T10:46:24;101723.09;;;26.25;100.00
9784;BME280;4931;44.874;-1.092;2023-06-22T10:48:50;101731.34;;;26.18;100.00
9784;BME280;4931;44.874;-1.092;2023-06-22T10:51:15;101728.16;;;25.88;100.00
9784;BME280;4931;44.874;-1.092;2023-06-22T10:53:41;101733.41;;;26.21;100.00
9784;BME280;4931;44.874;-1.092;2023-06-22T10:56:06;101739.16;;;26.60;100.00
9784;BME280;4931;44.874;-1.092;2023-06-22T10:58:32;101742.31;;;26.75;100.00
9784;BME280;4931;44.874;-1.092;2023-06-22T11:00:57;101739.53;;;26.59;100.00
9784;BME280;4931;44.874;-1.092;2023-06-22T11:03:24;101740.81;;;26.61;100.00
9784;BME280;4931;44.874;-1.092;2023-06-22T11:05:49;101740.88;;;27.00;100.00
9784;BME280;4931;44.874;-1.092;2023-06-22T11:08:15;101749.16;;;27.13;100.00
9784;BME280;4931;44.874;-1.092;2023-06-22T11:10:40;101748.59;;;27.04;100.00
9784;BME280;4931;44.874;-1.092;2023-06-22T11:13:06;101746.28;;;26.90;100.00
9784;BME280;4931;44.874;-1.092;2023-06-22T11:15:35;101749.34;;;27.20;100.00
9784;BME280;4931;44.874;-1.092;2023-06-22T11:18:00;101751.63;;;27.54;100.00
9784;BME280;4931;44.874;-1.092;2023-06-22T11:20:26;101743.13;;;27.96;100.00
9784;BME280;4931;44.874;-1.092;2023-06-22T11:22:51;101745.09;;;27.92;100.00
9784;BME280;4931;44.874;-1.092;2023-06-22T11:25:17;101740.19;;;27.66;100.00
9784;BME280;4931;44.874;-1.092;2023-06-22T11:27:42;101735.75;;;27.65;100.00
9784;BME280;4931;44.874;-1.092;2023-06-22T11:30:08;101744.13;;;27.85;100.00
9784;BME280;4931;44.874;-1.092;2023-06-22T11:32:34;101738.69;;;27.95;100.00
9784;BME280;4931;44.874;-1.092;2023-06-22T11:35:00;101742.13;;;27.85;100.00
9784;BME280;4931;44.874;-1.092;2023-06-22T11:37:25;101738.16;;;28.09;100.00
9784;BME280;4931;44.874;-1.092;2023-06-22T11:39:51;101739.72;;;28.07;100.00
9784;BME280;4931;44.874;-1.092;2023-06-22T11:42:17;101746.94;;;28.31;100.00
9784;BME280;4931;44.874;-1.092;2023-06-22T11:44:42;101746.47;;;28.25;100.00
9784;BME280;4931;44.874;-1.092;2023-06-22T11:47:09;101751.97;;;28.18;100.00
9784;BME280;4931;44.874;-1.092;2023-06-22T11:49:34;101765.97;;;28.38;100.00
9784;BME280;4931;44.874;-1.092;2023-06-22T11:52:00;101770.97;;;28.48;100.00
9784;BME280;4931;44.874;-1.092;2023-06-22T11:54:25;101763.59;;;28.40;100.00
9784;BME280;4931;44.874;-1.092;2023-06-22T11:56:50;101767.34;;;28.47;100.00
9784;BME280;4931;44.874;-1.092;2023-06-22T11:59:16;101768.09;;;28.68;100.00
9784;BME280;4931;44.874;-1.092;2023-06-22T12:01:41;101780.06;;;28.88;100.00
9784;BME280;4931;44.874;-1.092;2023-06-22T12:04:07;101788.06;;;28.59;100.00
9784;BME280;4931;44.874;-1.092;2023-06-22T12:06:33;101786.91;;;28.37;100.00
9784;BME280;4931;44.874;-1.092;2023-06-22T12:08:58;101792.47;;;28.29;100.00
9784;BME280;4931;44.874;-1.092;2023-06-22T12:11:24;101795.25;;;28.03;100.00
9784;BME280;4931;44.874;-1.092;2023-06-22T12:13:49;101803.13;;;28.16;100.00
9784;BME280;4931;44.874;-1.092;2023-06-22T12:16:15;101801.97;;;27.98;100.00
9784;BME280;4931;44.874;-1.092;2023-06-22T12:18:40;101820.00;;;27.93;100.00
9784;BME280;4931;44.874;-1.092;2023-06-22T12:21:05;101805.31;;;27.61;100.00
9784;BME280;4931;44.874;-1.092;2023-06-22T12:23:31;101817.38;;;27.61;100.00
9784;BME280;4931;44.874;-1.092;2023-06-22T12:25:56;101818.50;;;27.57;100.00
9784;BME280;4931;44.874;-1.092;2023-06-22T12:28:22;101831.91;;;27.83;100.00
9784;BME280;4931;44.874;-1.092;2023-06-22T12:30:48;101836.22;;;27.57;100.00
9784;BME280;4931;44.874;-1.092;2023-06-22T12:33:14;101838.13;;;27.73;100.00
9784;BME280;4931;44.874;-1.092;2023-06-22T12:35:39;101841.25;;;27.67;100.00
9784;BME280;4931;44.874;-1.092;2023-06-22T12:38:05;101841.72;;;27.50;100.00
9784;BME280;4931;44.874;-1.092;2023-06-22T12:40:32;101834.84;;;27.31;100.00
9784;BME280;4931;44.874;-1.092;2023-06-22T12:42:58;101842.25;;;27.20;100.00
9784;BME280;4931;44.874;-1.092;2023-06-22T12:45:24;101836.34;;;27.25;100.00
9784;BME280;4931;44.874;-1.092;2023-06-22T12:47:50;101835.03;;;27.39;100.00
9784;BME280;4931;44.874;-1.092;2023-06-22T12:50:16;101832.34;;;27.46;100.00
9784;BME280;4931;44.874;-1.092;2023-06-22T12:52:41;101836.69;;;27.40;100.00
9784;BME280;4931;44.874;-1.092;2023-06-22T12:55:07;101835.03;;;27.39;100.00
9784;BME280;4931;44.874;-1.092;2023-06-22T12:57:33;101839.03;;;27.38;100.00
9784;BME280;4931;44.874;-1.092;2023-06-22T12:59:58;101843.72;;;27.49;100.00
9784;BME280;4931;44.874;-1.092;2023-06-22T13:02:25;101845.56;;;27.42;100.00
9784;BME280;4931;44.874;-1.092;2023-06-22T13:04:51;101845.06;;;27.56;100.00
9784;BME280;4931;44.874;-1.092;2023-06-22T13:07:16;101839.91;;;27.81;100.00
9784;BME280;4931;44.874;-1.092;2023-06-22T13:09:42;101835.44;;;27.80;100.00
9784;BME280;4931;44.874;-1.092;2023-06-22T13:12:08;101839.97;;;27.85;100.00
9784;BME280;4931;44.874;-1.092;2023-06-22T13:14:33;101841.22;;;28.07;100.00
9784;BME280;4931;44.874;-1.092;2023-06-22T13:16:59;101838.50;;;27.91;100.00
9784;BME280;4931;44.874;-1.092;2023-06-22T13:19:24;101837.19;;;27.65;100.00
9784;BME280;4931;44.874;-1.092;2023-06-22T13:21:51;101835.63;;;27.67;100.00
9784;BME280;4931;44.874;-1.092;2023-06-22T13:24:16;101841.41;;;27.55;100.00
9784;BME280;4931;44.874;-1.092;2023-06-22T13:26:42;101846.41;;;28.05;100.00
9784;BME280;4931;44.874;-1.092;2023-06-22T13:29:07;101845.31;;;28.09;100.00
9784;BME280;4931;44.874;-1.092;2023-06-22T13:31:32;101845.41;;;27.74;100.00
9784;BME280;4931;44.874;-1.092;2023-06-22T13:33:58;101851.72;;;27.47;100.00
9784;BME280;4931;44.874;-1.092;2023-06-22T13:36:23;101848.19;;;27.15;100.00
9784;BME280;4931;44.874;-1.092;2023-06-22T13:38:49;101847.19;;;27.07;100.00
9784;BME280;4931;44.874;-1.092;2023-06-22T13:41:14;101849.66;;;27.09;100.00
9784;BME280;4931;44.874;-1.092;2023-06-22T13:43:40;101863.22;;;27.39;100.00
9784;BME280;4931;44.874;-1.092;2023-06-22T13:46:05;101860.19;;;27.31;100.00
9784;BME280;4931;44.874;-1.092;2023-06-22T13:48:31;101875.06;;;27.48;100.00
9784;BME280;4931;44.874;-1.092;2023-06-22T13:50:57;101870.78;;;27.54;100.00
9784;BME280;4931;44.874;-1.092;2023-06-22T13:53:24;101874.19;;;27.63;100.00
9784;BME280;4931;44.874;-1.092;2023-06-22T13:55:51;101882.19;;;27.26;100.00
9784;BME280;4931;44.874;-1.092;2023-06-22T13:58:17;101881.53;;;27.32;100.00
9784;BME280;4931;44.874;-1.092;2023-06-22T14:00:45;101884.38;;;27.32;100.00
9784;BME280;4931;44.874;-1.092;2023-06-22T14:03:10;101888.31;;;27.12;100.00
9784;BME280;4931;44.874;-1.092;2023-06-22T14:05:35;101886.44;;;27.16;100.00
9784;BME280;4931;44.874;-1.092;2023-06-22T14:08:01;101893.38;;;27.22;100.00
9784;BME280;4931;44.874;-1.092;2023-06-22T14:10:26;101891.72;;;26.86;100.00
9784;BME280;4931;44.874;-1.092;2023-06-22T14:12:52;101892.88;;;26.68;100.00
9784;BME280;4931;44.874;-1.092;2023-06-22T14:15:18;101899.91;;;26.91;100.00
9784;BME280;4931;44.874;-1.092;2023-06-22T14:17:44;101900.06;;;26.50;100.00
9784;BME280;4931;44.874;-1.092;2023-06-22T14:20:09;101901.78;;;26.71;100.00
9784;BME280;4931;44.874;-1.092;2023-06-22T14:22:35;101902.19;;;26.85;100.00
9784;BME280;4931;44.874;-1.092;2023-06-22T14:25:01;101896.56;;;26.85;100.00
9784;BME280;4931;44.874;-1.092;2023-06-22T14:27:27;101911.78;;;27.00;100.00
9784;BME280;4931;44.874;-1.092;2023-06-22T14:29:52;101904.72;;;26.90;100.00
9784;BME280;4931;44.874;-1.092;2023-06-22T14:32:18;101906.16;;;26.84;100.00
9784;BME280;4931;44.874;-1.092;2023-06-22T14:34:44;101911.25;;;26.94;100.00
9784;BME280;4931;44.874;-1.092;2023-06-22T14:37:09;101913.63;;;26.92;100.00
9784;BME280;4931;44.874;-1.092;2023-06-22T14:39:36;101907.81;;;26.85;100.00
9784;BME280;4931;44.874;-1.092;2023-06-22T14:42:01;101916.38;;;26.73;100.00
9784;BME280;4931;44.874;-1.092;2023-06-22T14:44:28;101906.09;;;26.80;100.00
9784;BME280;4931;44.874;-1.092;2023-06-22T14:46:55;101915.06;;;26.86;100.00
9784;BME280;4931;44.874;-1.092;2023-06-22T14:49:20;101918.22;;;26.68;100.00
9784;BME280;4931;44.874;-1.092;2023-06-22T14:51:46;101919.00;;;26.21;100.00
9784;BME280;4931;44.874;-1.092;2023-06-22T14:54:11;101913.31;;;26.33;100.00
9784;BME280;4931;44.874;-1.092;2023-06-22T14:56:37;101913.56;;;26.28;100.00
9784;BME280;4931;44.874;-1.092;2023-06-22T14:59:02;101921.38;;;26.35;100.00
9784;BME280;4931;44.874;-1.092;2023-06-22T15:01:28;101925.22;;;26.43;100.00
9784;BME280;4931;44.874;-1.092;2023-06-22T15:03:53;101922.22;;;26.67;100.00
9784;BME280;4931;44.874;-1.092;2023-06-22T15:06:18;101935.06;;;26.37;100.00
9784;BME280;4931;44.874;-1.092;2023-06-22T15:08:44;101928.63;;;26.20;100.00
9784;BME280;4931;44.874;-1.092;2023-06-22T15:11:10;101941.75;;;26.16;100.00
9784;BME280;4931;44.874;-1.092;2023-06-22T15:13:38;101947.91;;;26.06;100.00
9784;BME280;4931;44.874;-1.092;2023-06-22T15:16:04;101946.72;;;26.07;100.00
9784;BME280;4931;44.874;-1.092;2023-06-22T15:18:30;101940.03;;;25.99;100.00
9784;BME280;4931;44.874;-1.092;2023-06-22T15:20:55;101943.19;;;25.97;100.00
9784;BME280;4931;44.874;-1.092;2023-06-22T15:23:21;101937.94;;;25.96;100.00
9784;BME280;4931;44.874;-1.092;2023-06-22T15:25:47;101950.13;;;26.28;100.00
9784;BME280;4931;44.874;-1.092;2023-06-22T15:28:12;101957.44;;;26.17;100.00
9784;BME280;4931;44.874;-1.092;2023-06-22T15:30:38;101952.53;;;26.14;100.00
9784;BME280;4931;44.874;-1.092;2023-06-22T15:33:03;101951.63;;;26.10;100.00
9784;BME280;4931;44.874;-1.092;2023-06-22T15:35:29;101954.25;;;26.18;100.00
9784;BME280;4931;44.874;-1.092;2023-06-22T15:37:54;101950.47;;;25.98;100.00
9784;BME280;4931;44.874;-1.092;2023-06-22T15:40:20;101956.78;;;26.08;100.00
9784;BME280;4931;44.874;-1.092;2023-06-22T15:42:46;101962.19;;;26.00;100.00
9784;BME280;4931;44.874;-1.092;2023-06-22T15:45:12;101965.50;;;26.18;100.00
9784;BME280;4931;44.874;-1.092;2023-06-22T15:47:38;101962.38;;;26.20;100.00
9784;BME280;4931;44.874;-1.092;2023-06-22T15:50:04;101964.22;;;26.16;100.00
9784;BME280;4931;44.874;-1.092;2023-06-22T15:52:29;101954.88;;;26.12;100.00
9784;BME280;4931;44.874;-1.092;2023-06-22T15:54:55;101954.19;;;26.15;100.00
9784;BME280;4931;44.874;-1.092;2023-06-22T15:57:23;101965.00;;;26.00;100.00
9784;BME280;4931;44.874;-1.092;2023-06-22T15:59:51;101962.81;;;25.81;100.00
9784;BME280;4931;44.874;-1.092;2023-06-22T16:02:17;101971.91;;;25.62;100.00
9784;BME280;4931;44.874;-1.092;2023-06-22T16:04:42;101969.09;;;25.25;100.00
9784;BME280;4931;44.874;-1.092;2023-06-22T16:07:08;101963.94;;;25.27;100.00
9784;BME280;4931;44.874;-1.092;2023-06-22T16:09:33;101967.00;;;25.34;100.00
9784;BME280;4931;44.874;-1.092;2023-06-22T16:11:59;101961.50;;;25.38;100.00
9784;BME280;4931;44.874;-1.092;2023-06-22T16:14:24;101976.22;;;25.23;100.00
9784;BME280;4931;44.874;-1.092;2023-06-22T16:16:50;101968.28;;;25.25;100.00
9784;BME280;4931;44.874;-1.092;2023-06-22T16:19:15;101965.84;;;25.23;100.00
9784;BME280;4931;44.874;-1.092;2023-06-22T16:21:41;101965.84;;;25.48;100.00
9784;BME280;4931;44.874;-1.092;2023-06-22T16:24:07;101961.88;;;25.37;100.00
9784;BME280;4931;44.874;-1.092;2023-06-22T16:26:41;101977.88;;;25.24;100.00
9784;BME280;4931;44.874;-1.092;2023-06-22T16:29:07;101980.91;;;25.18;100.00
9784;BME280;4931;44.874;-1.092;2023-06-22T16:31:33;101973.78;;;25.09;100.00
9784;BME280;4931;44.874;-1.092;2023-06-22T16:33:58;101974.81;;;25.04;100.00
9784;BME280;4931;44.874;-1.092;2023-06-22T16:36:24;101971.66;;;25.06;100.00
9784;BME280;4931;44.874;-1.092;2023-06-22T16:38:49;101992.00;;;25.15;100.00
9784;BME280;4931;44.874;-1.092;2023-06-22T16:41:17;101990.84;;;25.03;100.00
9784;BME280;4931;44.874;-1.092;2023-06-22T16:43:43;101994.94;;;24.94;100.00
9784;BME280;4931;44.874;-1.092;2023-06-22T16:46:09;101988.72;;;24.88;100.00
9784;BME280;4931;44.874;-1.092;2023-06-22T16:48:37;101991.31;;;24.81;100.00
9784;BME280;4931;44.874;-1.092;2023-06-22T16:51:03;101995.75;;;24.94;100.00
9784;BME280;4931;44.874;-1.092;2023-06-22T16:53:32;101987.78;;;24.84;100.00
9784;BME280;4931;44.874;-1.092;2023-06-22T16:55:58;101988.16;;;24.82;100.00
9784;BME280;4931;44.874;-1.092;2023-06-22T16:58:24;101994.56;;;24.83;100.00
9784;BME280;4931;44.874;-1.092;2023-06-22T17:00:51;102001.47;;;24.73;100.00
9784;BME280;4931;44.874;-1.092;2023-06-22T17:03:28;102001.56;;;24.77;100.00
9784;BME280;4931;44.874;-1.092;2023-06-22T17:05:57;102008.09;;;24.68;100.00
9784;BME280;4931;44.874;-1.092;2023-06-22T17:08:28;102013.44;;;24.61;100.00
9784;BME280;4931;44.874;-1.092;2023-06-22T17:10:56;102010.44;;;24.66;100.00
9784;BME280;4931;44.874;-1.092;2023-06-22T17:13:21;102011.06;;;24.51;100.00
9784;BME280;4931;44.874;-1.092;2023-06-22T17:15:47;102018.38;;;24.64;100.00
9784;BME280;4931;44.874;-1.092;2023-06-22T17:18:14;102015.97;;;24.54;100.00
9784;BME280;4931;44.874;-1.092;2023-06-22T17:20:40;102026.03;;;24.55;100.00
9784;BME280;4931;44.874;-1.092;2023-06-22T17:23:05;102030.69;;;24.51;100.00
9784;BME280;4931;44.874;-1.092;2023-06-22T17:25:33;102033.28;;;24.56;100.00
9784;BME280;4931;44.874;-1.092;2023-06-22T17:28:00;102036.97;;;24.48;100.00
9784;BME280;4931;44.874;-1.092;2023-06-22T17:30:26;102041.63;;;24.44;100.00
9784;BME280;4931;44.874;-1.092;2023-06-22T17:32:52;102048.91;;;24.45;100.00
9784;BME280;4931;44.874;-1.092;2023-06-22T17:35:17;102038.31;;;24.29;100.00
9784;BME280;4931;44.874;-1.092;2023-06-22T17:37:51;102043.72;;;24.34;100.00
9784;BME280;4931;44.874;-1.092;2023-06-22T17:40:18;102045.03;;;24.16;100.00
9784;BME280;4931;44.874;-1.092;2023-06-22T17:42:44;102048.78;;;24.20;100.00
9784;BME280;4931;44.874;-1.092;2023-06-22T17:45:17;102052.19;;;24.04;100.00